Time;durP1;ratioP1;P1;durP2;ratioP2;P2;SDS_P1;SDS_P2;PMS_P1;PMS_P2;Temp;Humidity;BMP_temperature;BMP_pressure;BME280_temperature;BME280_humidity;BME280_pressure;Samples;Min_cycle;Max_cycle;Signal;HPM_P1;HPM_P2
2023/08/08 00:01:42;;;;;;;;;;;;;;;24.46;63.23;96875.06;596636;238;64788;-65
2023/08/08 00:04:10;;;;;;;;;;;;;;;24.45;62.84;96886.91;596649;238;67169;-65
2023/08/08 00:06:38;;;;;;;;;;;;;;;24.45;62.47;96889.60;596705;238;66796;-65
2023/08/08 00:09:06;;;;;;;;;;;;;;;24.46;62.82;96885.81;596684;238;64883;-65
2023/08/08 00:11:34;;;;;;;;;;;;;;;24.45;62.96;96878.06;596603;238;67010;-65
2023/08/08 00:14:01;;;;;;;;;;;;;;;24.44;63.02;96877.25;596656;238;67089;-65
2023/08/08 00:16:28;;;;;;;;;;;;;;;24.45;62.75;96870.01;596668;238;64824;-65
2023/08/08 00:18:56;;;;;;;;;;;;;;;24.44;62.56;96871.88;596652;238;66961;-65
2023/08/08 00:21:23;;;;;;;;;;;;;;;24.44;62.42;96885.30;596711;238;64680;-65
2023/08/08 00:23:51;;;;;;;;;;;;;;;24.45;62.36;96883.44;596646;238;62824;-65
2023/08/08 00:26:18;;;;;;;;;;;;;;;24.45;62.56;96902.24;596642;238;64564;-65
2023/08/08 00:28:46;;;;;;;;;;;;;;;24.44;62.25;96917.53;596660;238;65010;-65
2023/08/08 00:31:16;;;;;;;;;;;;;;;24.44;62.50;96930.97;596657;238;63457;-65
2023/08/08 00:33:42;;;;;;;;;;;;;;;24.44;62.42;96946.29;596594;238;67715;-65
2023/08/08 00:36:10;;;;;;;;;;;;;;;24.44;63.16;96955.14;596637;238;64815;-65
2023/08/08 00:38:38;;;;;;;;;;;;;;;24.44;63.16;96927.48;596552;238;65148;-65
2023/08/08 00:41:06;;;;;;;;;;;;;;;24.42;63.43;96908.97;596629;238;68343;-65
2023/08/08 00:43:34;;;;;;;;;;;;;;;24.42;62.80;96908.97;590856;238;66917;-65
2023/08/08 00:46:01;;;;;;;;;;;;;;;24.42;62.42;96900.91;596688;238;64721;-65
2023/08/08 00:48:29;;;;;;;;;;;;;;;24.41;62.72;96885.87;596639;238;65787;-65
2023/08/08 00:50:57;;;;;;;;;;;;;;;24.41;62.50;96891.23;596617;238;66885;-65
2023/08/08 00:53:28;;;;;;;;;;;;;;;24.40;62.46;96886.97;596612;238;65123;-65
2023/08/08 00:55:55;;;;;;;;;;;;;;;24.41;62.32;96882.39;596659;238;67442;-64
2023/08/08 00:58:23;;;;;;;;;;;;;;;24.41;62.24;96882.39;596608;238;67778;-64
2023/08/08 01:00:52;;;;;;;;;;;;;;;24.40;62.28;96868.17;596666;238;62708;-64
2023/08/08 01:03:20;;;;;;;;;;;;;;;24.40;62.53;96859.32;590835;238;67589;-67
2023/08/08 01:05:49;;;;;;;;;;;;;;;24.41;62.77;96858.22;596615;238;64995;-67
2023/08/08 01:08:18;;;;;;;;;;;;;;;24.39;62.88;96847.78;596546;238;62518;-67
2023/08/08 01:10:46;;;;;;;;;;;;;;;24.39;62.75;96842.41;596653;238;64919;-64
2023/08/08 01:13:15;;;;;;;;;;;;;;;24.38;62.65;96840.80;596682;238;67042;-64
2023/08/08 01:15:43;;;;;;;;;;;;;;;24.38;62.65;96844.28;596262;238;64700;-67
2023/08/08 01:18:11;;;;;;;;;;;;;;;24.38;62.46;96840.80;596616;238;65007;-64
2023/08/08 01:20:39;;;;;;;;;;;;;;;24.38;62.34;96849.66;596649;238;64796;-64
2023/08/08 01:23:14;;;;;;;;;;;;;;;24.39;62.30;96839.73;596643;238;64561;-64
2023/08/08 01:25:41;;;;;;;;;;;;;;;24.39;62.38;96850.47;585916;238;65618;-64
2023/08/08 01:28:09;;;;;;;;;;;;;;;24.39;62.25;96847.78;596645;238;67856;-64
2023/08/08 01:30:37;;;;;;;;;;;;;;;24.39;62.78;96850.47;596633;238;62516;-64
2023/08/08 01:33:06;;;;;;;;;;;;;;;24.38;62.34;96851.55;596677;238;64974;-64
2023/08/08 01:35:35;;;;;;;;;;;;;;;24.39;62.56;96853.16;596653;238;67060;-64
2023/08/08 01:38:07;;;;;;;;;;;;;;;24.38;62.63;96848.86;596589;238;64629;-64
2023/08/08 01:40:35;;;;;;;;;;;;;;;24.38;62.75;96846.17;596595;238;64990;-65
2023/08/08 01:43:04;;;;;;;;;;;;;;;24.38;62.78;96840.80;596644;238;66952;-65
2023/08/08 01:45:32;;;;;;;;;;;;;;;24.36;62.98;96837.61;596660;238;64639;-65
2023/08/08 01:47:59;;;;;;;;;;;;;;;24.36;62.92;96837.61;596696;238;66963;-65
2023/08/08 01:50:28;;;;;;;;;;;;;;;24.37;62.85;96833.85;596643;238;67556;-65
2023/08/08 01:52:56;;;;;;;;;;;;;;;24.37;62.97;96831.16;596702;238;64593;-65
2023/08/08 01:55:23;;;;;;;;;;;;;;;24.36;62.68;96838.44;596654;238;67461;-65
2023/08/08 01:57:51;;;;;;;;;;;;;;;24.36;62.86;96834.92;596641;238;66932;-65
2023/08/08 02:00:18;;;;;;;;;;;;;;;24.36;62.86;96838.44;596657;238;65519;-65
2023/08/08 02:02:45;;;;;;;;;;;;;;;24.36;62.82;96849.17;596652;238;67880;-65
2023/08/08 02:05:13;;;;;;;;;;;;;;;24.35;62.61;96844.09;596696;238;64926;-65
2023/08/08 02:07:40;;;;;;;;;;;;;;;24.35;62.85;96852.14;595605;238;62328;-65
2023/08/08 02:10:08;;;;;;;;;;;;;;;24.35;62.69;96862.89;592084;239;65968;-65
2023/08/08 02:12:36;;;;;;;;;;;;;;;24.34;62.68;96856.72;592030;239;67815;-65
2023/08/08 02:15:04;;;;;;;;;;;;;;;24.35;62.66;96863.68;592063;239;64623;-66
2023/08/08 02:17:32;;;;;;;;;;;;;;;24.34;62.68;96872.05;592090;239;67268;-65
2023/08/08 02:19:59;;;;;;;;;;;;;;;24.34;62.70;96883.58;592045;239;66865;-68
2023/08/08 02:22:26;;;;;;;;;;;;;;;24.34;62.60;96888.95;592057;239;64593;-68
2023/08/08 02:24:54;;;;;;;;;;;;;;;24.34;62.10;96897.01;592021;239;67063;-68
2023/08/08 02:27:21;;;;;;;;;;;;;;;24.35;62.11;96908.55;592038;239;64964;-68
2023/08/08 02:29:49;;;;;;;;;;;;;;;24.34;62.39;96905.06;592108;239;62564;-68
2023/08/08 02:32:16;;;;;;;;;;;;;;;24.34;62.37;96913.13;592042;239;65133;-68
2023/08/08 02:34:44;;;;;;;;;;;;;;;24.33;62.61;96916.09;592073;239;64727;-68
2023/08/08 02:37:11;;;;;;;;;;;;;;;24.32;62.68;96931.41;592038;239;62607;-66
2023/08/08 02:39:42;;;;;;;;;;;;;;;24.33;62.80;96935.69;592026;239;67713;-65
2023/08/08 02:42:09;;;;;;;;;;;;;;;24.32;62.63;96935.99;592038;239;67946;-65
2023/08/08 02:44:37;;;;;;;;;;;;;;;24.32;62.98;96941.36;592110;239;62349;-65
2023/08/08 02:47:05;;;;;;;;;;;;;;;24.31;62.68;96948.62;592037;239;65756;-65
2023/08/08 02:49:33;;;;;;;;;;;;;;;24.32;62.90;96955.58;592037;237;67069;-68
2023/08/08 02:52:01;;;;;;;;;;;;;;;24.31;62.70;96945.95;592016;239;62345;-68
2023/08/08 02:54:30;;;;;;;;;;;;;;;24.30;62.53;96952.39;592043;239;67957;-68
2023/08/08 02:56:58;;;;;;;;;;;;;;;24.30;62.79;96949.70;592107;239;64990;-68
2023/08/08 02:59:25;;;;;;;;;;;;;;;24.30;62.82;96949.70;592075;239;62419;-69
2023/08/08 03:01:53;;;;;;;;;;;;;;;24.30;62.54;96948.91;592015;239;64638;-68
2023/08/08 03:04:21;;;;;;;;;;;;;;;24.30;62.83;96948.91;592030;239;67113;-68
2023/08/08 03:06:50;;;;;;;;;;;;;;;24.29;62.97;96945.44;591998;239;64663;-68
2023/08/08 03:09:17;;;;;;;;;;;;;;;24.29;62.84;96960.76;592087;239;65384;-65
2023/08/08 03:11:45;;;;;;;;;;;;;;;24.30;63.04;96967.71;592056;239;65812;-65
2023/08/08 03:14:14;;;;;;;;;;;;;;;24.30;63.07;96975.77;589822;239;65404;-66
2023/08/08 03:16:42;;;;;;;;;;;;;;;24.29;62.83;96976.87;591577;239;66932;-65
2023/08/08 03:19:09;;;;;;;;;;;;;;;24.30;62.74;96983.82;590364;239;65700;-65
2023/08/08 03:21:37;;;;;;;;;;;;;;;24.30;62.72;96983.82;590638;239;65532;-65
2023/08/08 03:24:05;;;;;;;;;;;;;;;24.28;62.58;96981.45;591101;239;67126;-65
2023/08/08 03:26:33;;;;;;;;;;;;;;;24.29;62.91;96987.61;591399;239;66885;-65
2023/08/08 03:29:00;;;;;;;;;;;;;;;24.28;62.74;96981.45;586144;239;62160;-65
2023/08/08 03:31:32;;;;;;;;;;;;;;;24.28;63.02;96983.31;587445;239;44370;-65
2023/08/08 03:34:02;;;;;;;;;;;;;;;24.29;63.33;96979.55;589526;239;67404;-65
2023/08/08 03:36:29;;;;;;;;;;;;;;;24.28;63.02;96976.08;585721;242;64661;-65
2023/08/08 03:38:57;;;;;;;;;;;;;;;24.27;62.79;96979.83;585646;242;67063;-66
2023/08/08 03:41:24;;;;;;;;;;;;;;;24.28;63.27;96991.37;585639;242;64852;-65
2023/08/08 03:43:52;;;;;;;;;;;;;;;24.27;63.24;96987.89;585622;242;65536;-65
2023/08/08 03:46:20;;;;;;;;;;;;;;;24.27;63.25;96990.58;585670;242;67273;-65
2023/08/08 03:48:47;;;;;;;;;;;;;;;24.27;62.66;96993.26;585554;242;66779;-65
2023/08/08 03:51:15;;;;;;;;;;;;;;;24.27;62.69;96995.16;585603;242;65214;-65
2023/08/08 03:53:42;;;;;;;;;;;;;;;24.27;62.74;97000.52;585629;242;64990;-65
2023/08/08 03:56:10;;;;;;;;;;;;;;;24.28;62.64;97002.11;585644;242;65053;-65
2023/08/08 03:58:38;;;;;;;;;;;;;;;24.27;62.65;96998.63;585379;240;64845;-65
2023/08/08 04:01:07;;;;;;;;;;;;;;;24.27;62.77;97001.31;585679;242;67191;-65
2023/08/08 04:03:35;;;;;;;;;;;;;;;24.28;62.89;97004.80;585654;242;64902;-66
2023/08/08 04:06:02;;;;;;;;;;;;;;;24.28;62.86;97012.84;585665;242;64955;-65
2023/08/08 04:08:30;;;;;;;;;;;;;;;24.28;62.74;97015.53;588125;240;67440;-65
2023/08/08 04:10:57;;;;;;;;;;;;;;;24.26;62.66;97010.47;590179;240;66835;-66
2023/08/08 04:13:25;;;;;;;;;;;;;;;24.27;62.07;97011.27;590247;240;62310;-65
2023/08/08 04:15:55;;;;;;;;;;;;;;;24.26;62.13;97017.73;590172;240;66637;-65
2023/08/08 04:18:22;;;;;;;;;;;;;;;24.25;62.07;97022.29;590157;240;64707;-69
2023/08/08 04:20:50;;;;;;;;;;;;;;;24.26;61.89;97023.11;590129;240;64610;-69
2023/08/08 04:23:17;;;;;;;;;;;;;;;24.26;62.69;97021.22;590176;240;67203;-69
2023/08/08 04:25:45;;;;;;;;;;;;;;;24.25;62.48;97014.23;590133;240;66807;-69
2023/08/08 04:28:12;;;;;;;;;;;;;;;24.25;62.54;97024.97;590214;240;64702;-69
2023/08/08 04:30:40;;;;;;;;;;;;;;;24.26;61.84;97036.53;590175;240;67047;-68
2023/08/08 04:33:07;;;;;;;;;;;;;;;24.26;61.94;97031.16;590209;240;66910;-69
2023/08/08 04:35:35;;;;;;;;;;;;;;;24.25;62.31;97027.66;590147;240;64760;-68
2023/08/08 04:38:02;;;;;;;;;;;;;;;24.24;62.04;97028.76;590174;240;67330;-69
2023/08/08 04:40:30;;;;;;;;;;;;;;;24.24;62.62;97036.81;590178;240;67186;-69
2023/08/08 04:42:57;;;;;;;;;;;;;;;24.24;62.73;97042.19;590157;240;64782;-69
2023/08/08 04:45:27;;;;;;;;;;;;;;;24.25;63.10;97048.34;590122;240;65011;-69
2023/08/08 04:47:54;;;;;;;;;;;;;;;24.23;62.27;97043.28;590176;240;67056;-69
2023/08/08 04:50:21;;;;;;;;;;;;;;;24.24;62.31;97046.77;590148;240;62773;-69
2023/08/08 04:52:49;;;;;;;;;;;;;;;24.21;62.38;97048.14;590171;240;64975;-69
2023/08/08 04:55:16;;;;;;;;;;;;;;;24.24;62.73;97049.45;590151;240;65061;-69
2023/08/08 04:57:43;;;;;;;;;;;;;;;24.24;62.82;97049.45;590148;240;62713;-68
2023/08/08 05:00:12;;;;;;;;;;;;;;;24.23;62.81;97050.55;590175;240;65055;-69
2023/08/08 05:02:40;;;;;;;;;;;;;;;24.21;62.46;97058.88;590154;240;66712;-69
2023/08/08 05:05:09;;;;;;;;;;;;;;;24.22;63.22;97062.36;590200;240;62472;-69
2023/08/08 05:07:37;;;;;;;;;;;;;;;24.21;62.75;97066.94;589197;240;67316;-69
2023/08/08 05:10:05;;;;;;;;;;;;;;;24.21;63.02;97066.94;585653;242;65268;-69
2023/08/08 05:12:33;;;;;;;;;;;;;;;24.20;62.54;97068.04;585402;242;64833;-68
2023/08/08 05:15:00;;;;;;;;;;;;;;;24.20;63.02;97053.79;585519;242;67285;-69
2023/08/08 05:17:28;;;;;;;;;;;;;;;24.20;62.50;97059.98;585566;242;66719;-69
2023/08/08 05:19:55;;;;;;;;;;;;;;;24.20;62.34;97075.27;585451;242;64559;-69
2023/08/08 05:22:23;;;;;;;;;;;;;;;24.20;61.89;97081.47;585623;240;67163;-69
2023/08/08 05:24:50;;;;;;;;;;;;;;;24.21;62.24;97095.69;585379;242;67050;-66
2023/08/08 05:27:17;;;;;;;;;;;;;;;24.20;62.02;97111.00;585655;242;64754;-66
2023/08/08 05:29:45;;;;;;;;;;;;;;;24.21;62.18;97109.11;585638;242;66919;-66
2023/08/08 05:32:12;;;;;;;;;;;;;;;24.21;62.16;97114.48;585681;242;67048;-66
2023/08/08 05:34:40;;;;;;;;;;;;;;;24.21;62.22;97114.48;585636;242;64716;-66
2023/08/08 05:37:07;;;;;;;;;;;;;;;24.20;62.43;97107.49;585607;242;67557;-66
2023/08/08 05:39:35;;;;;;;;;;;;;;;24.20;62.77;97102.13;585558;242;68140;-66
2023/08/08 05:42:02;;;;;;;;;;;;;;;24.19;62.05;97105.91;585644;242;64819;-66
2023/08/08 05:44:30;;;;;;;;;;;;;;;24.19;62.57;97114.76;585666;242;67329;-66
2023/08/08 05:46:57;;;;;;;;;;;;;;;24.19;62.25;97117.44;585599;242;67191;-67
2023/08/08 05:49:25;;;;;;;;;;;;;;;24.19;62.22;97127.39;585386;242;62560;-65
2023/08/08 05:51:52;;;;;;;;;;;;;;;24.19;62.02;97143.50;585645;242;67366;-65
2023/08/08 05:54:20;;;;;;;;;;;;;;;24.19;62.76;97138.13;585572;242;67020;-65
2023/08/08 05:56:47;;;;;;;;;;;;;;;24.19;62.24;97127.39;585653;242;64994;-69
2023/08/08 05:59:15;;;;;;;;;;;;;;;24.20;63.46;97131.66;585340;242;67158;-69
2023/08/08 06:01:44;;;;;;;;;;;;;;;24.19;63.10;97127.39;585335;242;65759;-68
2023/08/08 06:04:11;;;;;;;;;;;;;;;24.18;62.02;97129.28;585600;242;64633;-69
2023/08/08 06:06:39;;;;;;;;;;;;;;;24.17;60.67;97142.98;585486;240;67249;-73
2023/08/08 06:09:08;;;;;;;;;;;;;;;24.15;61.63;97135.23;591179;239;66924;-73
2023/08/08 06:11:35;;;;;;;;;;;;;;;24.15;61.51;97140.60;592297;239;62088;-73
2023/08/08 06:14:07;;;;;;;;;;;;;;;24.14;61.93;97145.18;592263;239;67107;-74
2023/08/08 06:16:35;;;;;;;;;;;;;;;24.14;60.67;97147.04;592482;239;64594;-75
2023/08/08 06:19:03;;;;;;;;;;;;;;;24.13;61.31;97148.94;592464;239;62538;-73
2023/08/08 06:21:30;;;;;;;;;;;;;;;24.11;59.49;97151.09;592196;239;67220;-72
2023/08/08 06:23:58;;;;;;;;;;;;;;;24.12;59.91;97136.61;592286;239;65187;-72
2023/08/08 06:26:25;;;;;;;;;;;;;;;24.11;61.34;97137.67;592290;239;64751;-74
2023/08/08 06:28:53;;;;;;;;;;;;;;;24.11;60.96;97137.67;592267;239;67088;-72
2023/08/08 06:31:22;;;;;;;;;;;;;;;24.11;60.26;97137.67;592319;239;64840;-72
2023/08/08 06:33:49;;;;;;;;;;;;;;;24.11;60.31;97145.73;592286;239;64570;-79
2023/08/08 06:36:17;;;;;;;;;;;;;;;24.13;60.32;97145.45;592337;239;64984;-69
2023/08/08 06:38:46;;;;;;;;;;;;;;;24.12;58.15;97141.18;592241;239;66890;-78
2023/08/08 06:41:13;;;;;;;;;;;;;;;24.12;59.84;97139.29;592332;239;64622;-77
2023/08/08 06:43:45;;;;;;;;;;;;;;;24.16;57.77;97136.81;592298;239;66763;-79
2023/08/08 06:46:13;;;;;;;;;;;;;;;24.20;60.37;97131.66;592352;239;68285;-77
2023/08/08 06:48:42;;;;;;;;;;;;;;;24.20;60.34;97145.91;592377;239;62451;-76
2023/08/08 06:51:10;;;;;;;;;;;;;;;24.21;60.16;97141.33;592255;239;67334;-76
2023/08/08 06:53:37;;;;;;;;;;;;;;;24.25;60.09;97136.97;592315;237;66894;-75
2023/08/08 06:56:05;;;;;;;;;;;;;;;24.27;60.21;97140.96;592311;239;62461;-79
2023/08/08 06:58:32;;;;;;;;;;;;;;;24.28;60.56;97137.21;592318;239;65119;-79
2023/08/08 07:01:00;;;;;;;;;;;;;;;24.30;60.77;97142.27;592338;239;64821;-78
2023/08/08 07:03:30;;;;;;;;;;;;;;;24.29;60.38;97133.42;592320;239;62682;-79
2023/08/08 07:06:01;;;;;;;;;;;;;;;24.31;61.78;97136.63;592048;239;48236;-79
2023/08/08 07:08:29;;;;;;;;;;;;;;;24.34;61.03;97140.63;590223;239;66848;-79
2023/08/08 07:10:57;;;;;;;;;;;;;;;24.36;61.10;97141.11;588529;241;64734;-79
2023/08/08 07:13:25;;;;;;;;;;;;;;;24.37;61.68;97134.67;588555;241;64895;-79
2023/08/08 07:15:53;;;;;;;;;;;;;;;24.37;61.37;97126.61;588502;241;66896;-79
2023/08/08 07:18:20;;;;;;;;;;;;;;;24.38;61.58;97128.20;588466;241;63282;-74
2023/08/08 07:20:49;;;;;;;;;;;;;;;24.38;61.53;97131.67;588503;241;67140;-80
2023/08/08 07:23:17;;;;;;;;;;;;;;;24.40;60.59;97123.34;588531;241;67088;-80
2023/08/08 07:25:44;;;;;;;;;;;;;;;24.42;60.70;97129.23;588537;241;64620;-78
2023/08/08 07:28:12;;;;;;;;;;;;;;;24.42;60.49;97121.17;588569;241;67262;-78
2023/08/08 07:30:39;;;;;;;;;;;;;;;24.43;60.53;97125.44;588626;241;65428;-78
2023/08/08 07:33:13;;;;;;;;;;;;;;;24.44;59.88;97126.27;588585;239;62440;-82
2023/08/08 07:35:37;;;;;;;;;;;;;;;24.46;60.09;97134.84;588435;241;67240;-80
2023/08/08 07:38:04;;;;;;;;;;;;;;;24.46;59.83;97132.95;588519;241;67434;-80
2023/08/08 07:40:32;;;;;;;;;;;;;;;24.47;59.86;97122.99;588558;241;63478;-77
2023/08/08 07:42:59;;;;;;;;;;;;;;;24.48;59.43;97130.77;588517;241;67116;-71
2023/08/08 07:45:27;;;;;;;;;;;;;;;24.49;60.00;97128.88;588531;238;66928;-83
2023/08/08 07:47:54;;;;;;;;;;;;;;;24.50;59.92;97133.98;588394;238;64844;-69
2023/08/08 07:50:22;;;;;;;;;;;;;;;24.50;59.84;97133.16;588544;241;64886;-75
2023/08/08 07:52:49;;;;;;;;;;;;;;;24.47;58.89;97141.80;588572;241;64458;-75
2023/08/08 07:55:17;;;;;;;;;;;;;;;24.44;59.33;97135.12;588376;241;63168;-76
2023/08/08 07:57:45;;;;;;;;;;;;;;;24.42;57.17;97126.55;588469;239;66969;-72
2023/08/08 08:00:12;;;;;;;;;;;;;;;24.46;59.07;97135.63;588481;241;64797;-66
2023/08/08 08:02:42;;;;;;;;;;;;;;;24.45;59.70;97130.57;588492;241;64850;-75
2023/08/08 08:05:09;;;;;;;;;;;;;;;24.47;59.56;97129.19;588585;241;66096;-81
2023/08/08 08:07:37;;;;;;;;;;;;;;;24.46;58.87;97132.95;589216;239;66775;-82
2023/08/08 08:10:06;;;;;;;;;;;;;;;24.45;59.54;97119.83;592302;237;64598;-68
2023/08/08 08:12:34;;;;;;;;;;;;;;;24.45;60.17;97130.57;592289;237;64941;-72
2023/08/08 08:15:02;;;;;;;;;;;;;;;24.43;60.33;97133.50;592227;239;67115;-71
2023/08/08 08:17:29;;;;;;;;;;;;;;;24.42;60.13;97126.55;592299;237;64671;-72
2023/08/08 08:19:57;;;;;;;;;;;;;;;24.41;59.71;97124.92;592375;239;64609;-69
2023/08/08 08:22:24;;;;;;;;;;;;;;;24.42;60.06;97121.17;592241;239;64615;-71
2023/08/08 08:24:52;;;;;;;;;;;;;;;24.39;57.07;97116.38;592283;239;64595;-70
2023/08/08 08:27:19;;;;;;;;;;;;;;;24.40;59.67;97128.71;592296;239;64376;-71
2023/08/08 08:29:47;;;;;;;;;;;;;;;24.40;59.02;97125.23;592211;239;65517;-72
2023/08/08 08:32:14;;;;;;;;;;;;;;;24.38;58.06;97112.87;592351;237;64337;-71
2023/08/08 08:34:42;;;;;;;;;;;;;;;24.39;58.56;97111.02;592355;239;66804;-71
2023/08/08 08:37:09;;;;;;;;;;;;;;;24.38;57.98;97110.19;592273;239;66815;-74
2023/08/08 08:39:37;;;;;;;;;;;;;;;24.40;58.49;97106.44;592324;239;63670;-73
2023/08/08 08:42:05;;;;;;;;;;;;;;;24.39;57.60;97113.70;592249;239;66780;-73
2023/08/08 08:44:33;;;;;;;;;;;;;;;24.38;57.85;97110.19;592346;239;66948;-73
2023/08/08 08:47:02;;;;;;;;;;;;;;;24.39;57.74;97111.02;592300;239;64594;-72
2023/08/08 08:49:32;;;;;;;;;;;;;;;24.39;57.08;97111.02;592297;239;67098;-73
2023/08/08 08:52:04;;;;;;;;;;;;;;;24.40;57.42;97122.55;592192;239;67310;-70
2023/08/08 08:54:32;;;;;;;;;;;;;;;24.39;57.43;97113.70;592269;239;64694;-73
2023/08/08 08:57:00;;;;;;;;;;;;;;;24.39;57.99;97102.95;592346;237;67155;-73
2023/08/08 08:59:27;;;;;;;;;;;;;;;24.41;58.48;97108.02;592220;239;66872;-73
2023/08/08 09:01:55;;;;;;;;;;;;;;;24.38;58.00;97104.81;592250;239;64634;-73
2023/08/08 09:04:23;;;;;;;;;;;;;;;24.40;57.78;97103.75;592289;239;64966;-72
2023/08/08 09:06:51;;;;;;;;;;;;;;;24.40;57.79;97114.48;592209;239;64863;-73
2023/08/08 09:09:21;;;;;;;;;;;;;;;24.40;57.82;97117.97;588929;239;62450;-72
2023/08/08 09:11:54;;;;;;;;;;;;;;;24.39;56.58;97119.06;588505;241;66643;-72
2023/08/08 09:14:24;;;;;;;;;;;;;;;24.41;56.96;97116.08;588534;241;67560;-72
2023/08/08 09:16:57;;;;;;;;;;;;;;;24.40;57.81;97114.48;588512;241;64640;-72
2023/08/08 09:19:24;;;;;;;;;;;;;;;24.39;58.33;97113.70;588446;239;67524;-71
2023/08/08 09:21:52;;;;;;;;;;;;;;;24.38;58.02;97117.45;588380;238;67295;-71
2023/08/08 09:24:21;;;;;;;;;;;;;;;24.39;58.22;97124.44;587074;239;64602;-72
2023/08/08 09:26:48;;;;;;;;;;;;;;;24.39;58.33;97119.06;588540;239;67125;-72
2023/08/08 09:29:16;;;;;;;;;;;;;;;24.38;56.69;97114.77;588308;239;66886;-72
2023/08/08 09:31:43;;;;;;;;;;;;;;;24.40;57.32;97120.66;588532;239;62484;-72
2023/08/08 09:34:11;;;;;;;;;;;;;;;24.40;57.02;97107.22;589227;239;67830;-73
2023/08/08 09:36:39;;;;;;;;;;;;;;;24.41;57.64;97100.75;587552;239;63774;-73
2023/08/08 09:39:07;;;;;;;;;;;;;;;24.42;57.73;97110.42;588711;239;64757;-74
2023/08/08 09:41:34;;;;;;;;;;;;;;;24.43;57.86;97111.22;588347;239;66812;-73
2023/08/08 09:44:05;;;;;;;;;;;;;;;24.43;58.21;97106.64;588568;239;64568;-73
2023/08/08 09:46:33;;;;;;;;;;;;;;;24.41;58.03;97103.44;589238;239;65771;-73
2023/08/08 09:49:01;;;;;;;;;;;;;;;24.42;58.06;97101.55;589395;239;66855;-75
2023/08/08 09:51:28;;;;;;;;;;;;;;;24.43;58.13;97098.58;587085;239;67059;-72
2023/08/08 09:53:56;;;;;;;;;;;;;;;24.44;57.19;97096.72;587695;239;62419;-73
2023/08/08 09:56:27;;;;;;;;;;;;;;;24.44;55.98;97108.25;587273;239;64796;-75
2023/08/08 09:58:56;;;;;;;;;;;;;;;24.45;58.21;97099.13;586774;239;66615;-72
2023/08/08 10:01:25;;;;;;;;;;;;;;;24.43;58.90;97101.27;588002;239;64637;-70
2023/08/08 10:03:52;;;;;;;;;;;;;;;24.41;59.30;97091.91;586977;239;64659;-71
2023/08/08 10:06:20;;;;;;;;;;;;;;;24.41;58.38;97105.33;585941;239;64899;-72
2023/08/08 10:08:48;;;;;;;;;;;;;;;24.40;57.80;97091.11;589721;239;64575;-75
2023/08/08 10:11:16;;;;;;;;;;;;;;;24.40;58.25;97091.11;591561;237;66525;-74
2023/08/08 10:13:50;;;;;;;;;;;;;;;24.38;56.33;97085.22;592333;239;66854;-72
2023/08/08 10:16:18;;;;;;;;;;;;;;;24.39;57.42;97086.84;592031;239;64705;-70
2023/08/08 10:18:46;;;;;;;;;;;;;;;24.38;56.25;97098.66;585990;242;66948;-70
2023/08/08 10:21:15;;;;;;;;;;;;;;;24.38;56.01;97098.66;586144;239;64814;-66
2023/08/08 10:23:43;;;;;;;;;;;;;;;24.37;56.38;97097.06;585926;242;64573;-75
2023/08/08 10:26:20;;;;;;;;;;;;;;;24.36;56.80;97098.95;585879;242;66624;-71
2023/08/08 10:28:55;;;;;;;;;;;;;;;24.36;56.49;97095.45;585909;239;67867;-73
2023/08/08 10:31:22;;;;;;;;;;;;;;;24.36;56.38;97095.45;585918;242;62485;-72
2023/08/08 10:33:50;;;;;;;;;;;;;;;24.35;56.52;97089.28;585987;242;64918;-70
2023/08/08 10:36:17;;;;;;;;;;;;;;;24.34;57.33;97082.33;587284;239;64599;-63
2023/08/08 10:38:54;;;;;;;;;;;;;;;24.35;57.10;97091.97;586241;239;62485;-72
2023/08/08 10:41:20;;;;;;;;;;;;;;;24.33;55.34;97090.66;589528;239;64633;-74
2023/08/08 10:43:54;;;;;;;;;;;;;;;24.34;56.46;97086.91;591512;239;67688;-74
2023/08/08 10:46:32;;;;;;;;;;;;;;;24.33;57.35;97083.40;587893;239;64652;-71
2023/08/08 10:49:01;;;;;;;;;;;;;;;24.34;56.91;97086.91;591353;237;64573;-71
2023/08/08 10:51:45;;;;;;;;;;;;;;;24.34;56.79;97079.64;592309;239;64794;-71
2023/08/08 10:54:16;;;;;;;;;;;;;;;24.35;56.98;97072.38;591966;239;64653;-71
2023/08/08 10:56:51;;;;;;;;;;;;;;;24.34;56.47;97082.33;592328;237;64868;-72
2023/08/08 10:59:23;;;;;;;;;;;;;;;24.35;56.90;97067.01;592253;239;66977;-72
2023/08/08 11:01:51;;;;;;;;;;;;;;;24.34;57.23;97068.90;592398;239;62639;-71
2023/08/08 11:04:20;;;;;;;;;;;;;;;24.35;57.67;97073.17;592371;239;66823;-71
2023/08/08 11:06:49;;;;;;;;;;;;;;;24.35;57.53;97067.01;592279;239;67007;-71
2023/08/08 11:09:17;;;;;;;;;;;;;;;24.34;57.10;97079.64;592316;239;64850;-72
2023/08/08 11:11:46;;;;;;;;;;;;;;;24.34;57.82;97068.11;592325;239;64797;-72
2023/08/08 11:14:15;;;;;;;;;;;;;;;24.34;57.80;97076.95;591163;239;66377;-72
2023/08/08 11:16:43;;;;;;;;;;;;;;;24.34;57.51;97068.90;592165;239;62641;-70
2023/08/08 11:19:11;;;;;;;;;;;;;;;24.35;57.52;97072.38;592319;239;66797;-73
2023/08/08 11:21:41;;;;;;;;;;;;;;;24.33;57.47;97069.97;592237;239;67645;-72
2023/08/08 11:24:09;;;;;;;;;;;;;;;24.35;57.13;97072.38;592271;239;62367;-72
2023/08/08 11:26:37;;;;;;;;;;;;;;;24.35;57.60;97061.63;592273;239;65573;-72
2023/08/08 11:29:06;;;;;;;;;;;;;;;24.34;57.43;97057.36;592310;239;64590;-73
2023/08/08 11:31:35;;;;;;;;;;;;;;;24.34;57.10;97066.21;592308;239;64653;-72
2023/08/08 11:34:04;;;;;;;;;;;;;;;24.35;57.46;97072.38;592151;239;66837;-72
2023/08/08 11:36:33;;;;;;;;;;;;;;;24.35;57.99;97069.69;592276;239;64336;-72
2023/08/08 11:39:07;;;;;;;;;;;;;;;24.36;57.74;97060.53;592163;239;62482;-72
2023/08/08 11:41:31;;;;;;;;;;;;;;;24.35;57.68;97064.32;592178;239;66681;-73
2023/08/08 11:43:59;;;;;;;;;;;;;;;24.35;57.41;97067.80;592371;239;66623;-73
2023/08/08 11:46:27;;;;;;;;;;;;;;;24.35;57.63;97056.27;592273;239;64600;-73
2023/08/08 11:48:54;;;;;;;;;;;;;;;24.35;57.33;97062.42;592243;239;64901;-73
2023/08/08 11:51:22;;;;;;;;;;;;;;;24.35;57.62;97056.27;592318;239;66737;-72
2023/08/08 11:53:51;;;;;;;;;;;;;;;24.35;57.52;97051.69;592302;239;64695;-72
2023/08/08 11:56:21;;;;;;;;;;;;;;;24.34;57.69;97044.73;592297;239;66828;-72
2023/08/08 11:58:52;;;;;;;;;;;;;;;24.36;57.45;97041.73;592296;239;66713;-72
2023/08/08 12:01:26;;;;;;;;;;;;;;;24.35;57.96;97056.27;592296;239;63490;-71
2023/08/08 12:03:57;;;;;;;;;;;;;;;24.35;57.30;97045.52;592299;237;66867;-71
2023/08/08 12:06:26;;;;;;;;;;;;;;;24.35;57.37;97045.52;592303;239;66716;-69
2023/08/08 12:08:54;;;;;;;;;;;;;;;24.35;57.22;97037.46;589456;239;64798;-72
2023/08/08 12:11:22;;;;;;;;;;;;;;;24.35;57.45;97040.15;588566;241;66883;-72
2023/08/08 12:13:49;;;;;;;;;;;;;;;24.35;57.74;97029.41;588470;241;66519;-72
2023/08/08 12:16:17;;;;;;;;;;;;;;;24.34;57.48;97033.19;588550;239;64668;-75
2023/08/08 12:18:45;;;;;;;;;;;;;;;24.35;57.36;97040.15;588495;241;66969;-73
2023/08/08 12:21:12;;;;;;;;;;;;;;;24.34;57.19;97033.98;588547;241;66842;-73
2023/08/08 12:23:40;;;;;;;;;;;;;;;24.33;57.01;97042.31;588606;241;62535;-77
2023/08/08 12:26:08;;;;;;;;;;;;;;;24.33;57.41;97042.31;588514;241;64730;-77
2023/08/08 12:28:36;;;;;;;;;;;;;;;24.33;57.31;97042.31;588582;241;66150;-73
2023/08/08 12:31:03;;;;;;;;;;;;;;;24.33;56.65;97039.63;588561;241;62542;-75
2023/08/08 12:33:31;;;;;;;;;;;;;;;24.32;56.26;97035.36;588516;241;64347;-72
2023/08/08 12:35:58;;;;;;;;;;;;;;;24.34;56.49;97039.35;588603;241;66695;-75
2023/08/08 12:38:26;;;;;;;;;;;;;;;24.35;56.77;97034.77;588464;241;64598;-73
2023/08/08 12:40:53;;;;;;;;;;;;;;;24.34;57.10;97031.30;588567;241;66603;-75
2023/08/08 12:43:21;;;;;;;;;;;;;;;24.34;56.90;97042.04;588565;241;66460;-73
2023/08/08 12:45:48;;;;;;;;;;;;;;;24.33;56.76;97043.11;588513;241;64624;-73
2023/08/08 12:48:16;;;;;;;;;;;;;;;24.33;56.16;97045.00;588528;241;66597;-74
2023/08/08 12:50:43;;;;;;;;;;;;;;;24.33;56.64;97032.37;588472;241;66686;-73
2023/08/08 12:53:11;;;;;;;;;;;;;;;24.34;56.76;97038.56;588524;241;64581;-78